createdAt,value
2023-03-26T00:00:34.085Z,99.58
2023-03-26T00:01:38.715Z,99.57
2023-03-26T00:02:41.077Z,99.28
2023-03-26T00:03:44.935Z,99.52
2023-03-26T00:04:46.475Z,99.44
2023-03-26T00:05:49.880Z,99.48
2023-03-26T00:06:51.803Z,99.42
2023-03-26T00:07:53.347Z,99.55
2023-03-26T00:08:55.756Z,99.54
2023-03-26T00:09:58.962Z,99.87
2023-03-26T00:11:01.199Z,99.82
2023-03-26T00:12:05.190Z,99.92
2023-03-26T00:13:06.790Z,100.00
2023-03-26T00:14:13.997Z,99.85
2023-03-26T00:15:18.132Z,100.00
2023-03-26T00:16:20.380Z,100.00
2023-03-26T00:17:21.984Z,100.00
2023-03-26T00:18:42.543Z,100.00
2023-03-26T00:19:44.235Z,100.00
2023-03-26T00:20:48.564Z,100.00
2023-03-26T00:21:51.752Z,100.00
2023-03-26T00:22:55.091Z,100.00
2023-03-26T00:23:59.543Z,100.00
2023-03-26T00:25:01.413Z,100.00
2023-03-26T00:26:05.407Z,100.00
2023-03-26T00:27:09.654Z,100.00
2023-03-26T00:28:11.402Z,100.00
2023-03-26T00:29:14.076Z,100.00
2023-03-26T00:30:16.519Z,100.00
2023-03-26T00:31:18.196Z,100.00
2023-03-26T00:32:19.725Z,100.00
2023-03-26T00:33:23.663Z,100.00
2023-03-26T00:34:26.704Z,100.00
2023-03-26T00:35:34.733Z,100.00
2023-03-26T00:36:36.342Z,100.00
2023-03-26T00:37:37.817Z,100.00
2023-03-26T00:38:39.427Z,100.00
2023-03-26T00:39:42.751Z,100.00
2023-03-26T00:40:50.152Z,100.00
2023-03-26T00:41:54.228Z,100.00
2023-03-26T00:42:56.030Z,100.00
2023-03-26T00:43:58.557Z,100.00
2023-03-26T00:44:59.971Z,100.00
2023-03-26T00:46:03.553Z,100.00
2023-03-26T00:47:05.039Z,100.00
2023-03-26T00:48:06.618Z,100.00
2023-03-26T00:49:10.850Z,100.00
2023-03-26T00:50:15.555Z,100.00
2023-03-26T00:51:18.173Z,100.00
2023-03-26T00:52:20.040Z,100.00
2023-03-26T00:53:22.002Z,100.00
2023-03-26T00:54:27.363Z,100.00
2023-03-26T00:55:29.013Z,100.00
2023-03-26T00:56:31.929Z,100.00
2023-03-26T00:57:35.901Z,100.00
2023-03-26T00:58:38.615Z,100.00
2023-03-26T00:59:40.575Z,100.00
2023-03-26T01:00:58.926Z,100.00
2023-03-26T01:02:00.462Z,100.00
2023-03-26T01:03:04.670Z,100.00
2023-03-26T01:04:21.127Z,100.00
2023-03-26T01:05:34.489Z,99.99
2023-03-26T01:06:42.077Z,99.96
2023-03-26T01:07:44.769Z,100.00
2023-03-26T01:08:50.380Z,99.79
2023-03-26T01:09:51.841Z,99.75
2023-03-26T01:11:02.684Z,99.83
2023-03-26T01:12:06.610Z,99.69
2023-03-26T01:13:08.767Z,99.96
2023-03-26T01:14:14.689Z,99.77
2023-03-26T01:15:16.228Z,99.78
2023-03-26T01:16:28.548Z,99.76
2023-03-26T01:17:34.177Z,99.94
2023-03-26T01:18:41.076Z,99.87
2023-03-26T01:19:47.876Z,99.97
2023-03-26T01:20:58.441Z,99.96
2023-03-26T01:22:00.603Z,99.95
2023-03-26T01:23:05.290Z,100.00
2023-03-26T01:24:08.067Z,100.00
2023-03-26T01:25:09.819Z,100.00
2023-03-26T01:26:17.608Z,100.00
2023-03-26T01:27:24.554Z,100.00
2023-03-26T01:28:29.055Z,100.00
2023-03-26T01:29:33.585Z,100.00
2023-03-26T01:30:58.624Z,100.00
2023-03-26T01:32:00.129Z,100.00
2023-03-26T01:33:07.432Z,100.00
2023-03-26T01:34:12.298Z,100.00
2023-03-26T01:35:32.493Z,100.00
2023-03-26T01:36:48.896Z,100.00
2023-03-26T01:37:58.504Z,100.00
2023-03-26T01:39:18.684Z,100.00
2023-03-26T01:40:26.258Z,100.00
2023-03-26T01:41:46.487Z,100.00
2023-03-26T01:42:52.579Z,100.00
2023-03-26T01:43:57.933Z,100.00
2023-03-26T01:45:15.453Z,100.00
2023-03-26T01:46:19.254Z,100.00
2023-03-26T01:47:21.374Z,100.00
2023-03-26T01:48:29.015Z,100.00
2023-03-26T01:49:31.064Z,100.00
2023-03-26T01:50:34.780Z,100.00
2023-03-26T01:51:36.399Z,100.00
2023-03-26T01:52:38.313Z,100.00
2023-03-26T01:53:42.763Z,100.00
2023-03-26T01:54:46.543Z,100.00
2023-03-26T01:56:10.840Z,100.00
2023-03-26T01:57:20.315Z,100.00
2023-03-26T01:58:30.931Z,100.00
2023-03-26T01:59:35.223Z,100.00
2023-03-26T02:00:48.748Z,100.00
2023-03-26T02:02:05.609Z,100.00
2023-03-26T02:03:09.045Z,100.00
2023-03-26T02:04:19.436Z,99.92
2023-03-26T02:05:26.384Z,99.68
2023-03-26T02:06:37.447Z,99.37
2023-03-26T02:07:44.811Z,99.19
2023-03-26T02:08:53.334Z,98.58
2023-03-26T02:09:59.422Z,98.27
2023-03-26T02:11:04.371Z,97.86
2023-03-26T02:12:06.926Z,97.41
2023-03-26T02:13:09.069Z,97.24
2023-03-26T02:14:10.880Z,96.63
2023-03-26T02:15:12.638Z,96.63
2023-03-26T02:16:16.240Z,96.67
2023-03-26T02:17:19.105Z,96.74
2023-03-26T02:18:24.363Z,96.93
2023-03-26T02:19:27.122Z,97.15
2023-03-26T02:20:31.643Z,97.12
2023-03-26T02:21:34.250Z,97.22
2023-03-26T02:22:40.731Z,97.16
2023-03-26T02:23:47.060Z,97.10
2023-03-26T02:24:49.267Z,97.22
2023-03-26T02:25:53.988Z,97.13
2023-03-26T02:26:55.993Z,96.96
2023-03-26T02:27:58.388Z,96.85
2023-03-26T02:29:01.607Z,95.69
2023-03-26T02:30:07.883Z,94.88
2023-03-26T02:31:11.053Z,94.63
2023-03-26T02:32:15.416Z,94.57
2023-03-26T02:33:17.512Z,94.16
2023-03-26T02:34:19.143Z,94.02
2023-03-26T02:35:25.094Z,93.27
2023-03-26T02:36:32.338Z,93.17
2023-03-26T02:37:39.209Z,92.96
2023-03-26T02:38:49.113Z,93.17
2023-03-26T02:39:50.799Z,93.43
2023-03-26T02:41:01.615Z,93.16
2023-03-26T02:42:13.767Z,93.19
2023-03-26T02:43:21.810Z,93.41
2023-03-26T02:44:23.533Z,93.21
2023-03-26T02:45:34.053Z,93.35
2023-03-26T02:47:10.432Z,93.33
2023-03-26T02:48:28.204Z,93.45
2023-03-26T02:49:38.207Z,93.63
2023-03-26T02:50:39.883Z,93.76
2023-03-26T02:52:00.456Z,93.65
2023-03-26T02:53:03.245Z,93.80
2023-03-26T02:54:11.035Z,93.74
2023-03-26T02:55:29.948Z,93.79
2023-03-26T02:56:34.871Z,93.59
2023-03-26T02:57:51.161Z,93.80
2023-03-26T02:58:54.829Z,93.66
2023-03-26T02:59:57.501Z,93.33
2023-03-26T03:01:11.445Z,93.26
2023-03-26T03:02:24.449Z,93.13
2023-03-26T03:03:34.026Z,93.21
2023-03-26T03:04:36.873Z,93.37
2023-03-26T03:05:43.406Z,93.23
2023-03-26T03:06:52.985Z,93.25
2023-03-26T03:07:58.017Z,93.16
2023-03-26T03:09:02.751Z,92.98
2023-03-26T03:10:10.274Z,93.06
2023-03-26T03:11:38.131Z,92.94
2023-03-26T03:12:41.003Z,93.03
2023-03-26T03:13:43.361Z,92.76
2023-03-26T03:14:44.921Z,93.06
2023-03-26T03:15:46.364Z,93.10
2023-03-26T03:16:47.917Z,93.08
2023-03-26T03:17:49.495Z,92.93
2023-03-26T03:18:57.875Z,92.77
2023-03-26T03:20:02.020Z,93.15
2023-03-26T03:21:06.733Z,93.40
2023-03-26T03:22:08.523Z,93.46
2023-03-26T03:23:10.749Z,93.52
2023-03-26T03:24:14.054Z,93.71
2023-03-26T03:25:25.977Z,93.95
2023-03-26T03:26:29.575Z,94.04
2023-03-26T03:27:34.719Z,94.33
2023-03-26T03:28:41.820Z,94.70
2023-03-26T03:29:43.411Z,94.44
2023-03-26T03:31:09.245Z,94.44
2023-03-26T03:32:11.812Z,94.61
2023-03-26T03:33:20.447Z,94.81
2023-03-26T03:34:23.420Z,94.95
2023-03-26T03:35:28.159Z,94.89
2023-03-26T03:36:33.396Z,94.84
2023-03-26T03:37:41.706Z,94.75
2023-03-26T03:38:44.539Z,94.75
2023-03-26T03:39:50.992Z,94.80
2023-03-26T03:40:55.502Z,94.79
2023-03-26T03:42:01.743Z,94.79
2023-03-26T03:43:03.677Z,94.80
2023-03-26T03:44:14.648Z,94.75
2023-03-26T03:45:18.906Z,94.87
2023-03-26T03:46:40.757Z,94.83
2023-03-26T03:47:42.328Z,94.79
2023-03-26T03:48:48.493Z,94.89
2023-03-26T03:49:51.860Z,95.19
2023-03-26T03:50:54.044Z,95.15
2023-03-26T03:52:01.556Z,95.23
2023-03-26T03:53:11.635Z,95.43
2023-03-26T03:54:15.624Z,95.26
2023-03-26T03:55:19.751Z,95.23
2023-03-26T03:56:26.206Z,95.23
2023-03-26T03:57:59.964Z,95.27
2023-03-26T03:59:03.947Z,95.24
2023-03-26T04:00:10.064Z,95.16
2023-03-26T04:01:18.755Z,95.15
2023-03-26T04:02:34.958Z,95.14
2023-03-26T04:03:40.019Z,95.11
2023-03-26T04:04:50.020Z,94.80
2023-03-26T04:05:55.114Z,94.71
2023-03-26T04:06:58.958Z,94.83
2023-03-26T04:08:05.873Z,94.34
2023-03-26T04:09:22.586Z,94.19
2023-03-26T04:10:24.697Z,94.18
2023-03-26T04:11:37.872Z,94.19
2023-03-26T04:13:09.164Z,94.32
2023-03-26T04:14:25.715Z,94.14
2023-03-26T04:15:37.899Z,94.05
2023-03-26T04:16:41.551Z,93.98
2023-03-26T04:17:45.252Z,93.86
2023-03-26T04:18:49.396Z,93.98
2023-03-26T04:19:53.000Z,93.89
2023-03-26T04:20:55.618Z,93.95
2023-03-26T04:22:02.725Z,93.86
2023-03-26T04:23:13.982Z,94.04
2023-03-26T04:24:20.451Z,94.00
2023-03-26T04:25:54.385Z,94.18
2023-03-26T04:27:06.567Z,94.22
2023-03-26T04:28:14.458Z,94.22
2023-03-26T04:29:49.797Z,94.33
2023-03-26T04:30:57.119Z,94.26
2023-03-26T04:32:26.657Z,94.21
2023-03-26T04:33:33.726Z,94.45
2023-03-26T04:34:36.288Z,94.42
2023-03-26T04:35:46.115Z,94.58
2023-03-26T04:36:49.788Z,94.42
2023-03-26T04:37:53.014Z,94.58
2023-03-26T04:39:03.560Z,94.53
2023-03-26T04:40:24.945Z,94.60
2023-03-26T04:41:47.051Z,94.74
2023-03-26T04:42:54.557Z,94.69
2023-03-26T04:44:08.734Z,94.75
2023-03-26T04:45:32.836Z,95.05
2023-03-26T04:46:34.922Z,94.86
2023-03-26T04:47:50.270Z,94.92
2023-03-26T04:48:52.633Z,95.19
2023-03-26T04:49:56.633Z,95.09
2023-03-26T04:50:58.593Z,95.02
2023-03-26T04:52:00.305Z,94.89
2023-03-26T04:53:27.903Z,94.71
2023-03-26T04:54:47.775Z,94.71
2023-03-26T04:56:09.139Z,94.67
2023-03-26T04:57:46.123Z,94.62
2023-03-26T04:59:01.283Z,94.62
2023-03-26T05:00:16.565Z,94.47
2023-03-26T05:01:24.574Z,94.49
2023-03-26T05:02:28.647Z,94.50
2023-03-26T05:03:31.171Z,94.56
2023-03-26T05:04:39.601Z,94.54
2023-03-26T05:05:42.237Z,94.47
2023-03-26T05:06:48.588Z,94.54
2023-03-26T05:07:59.595Z,94.58
2023-03-26T05:09:02.026Z,94.29
2023-03-26T05:10:36.507Z,94.32
2023-03-26T05:11:40.369Z,94.35
2023-03-26T05:12:42.490Z,93.95
2023-03-26T05:13:51.472Z,94.09
2023-03-26T05:14:53.614Z,93.77
2023-03-26T05:16:06.505Z,94.04
2023-03-26T05:17:14.774Z,94.08
2023-03-26T05:18:21.428Z,94.14
2023-03-26T05:19:26.319Z,94.04
2023-03-26T05:20:30.215Z,94.15
2023-03-26T05:21:32.253Z,94.04
2023-03-26T05:22:36.657Z,94.12
2023-03-26T05:23:49.014Z,93.98
2023-03-26T05:24:57.689Z,94.17
2023-03-26T05:25:59.099Z,94.17
2023-03-26T05:27:01.246Z,94.30
2023-03-26T05:28:03.412Z,94.19
2023-03-26T05:29:20.186Z,94.40
2023-03-26T05:30:27.718Z,94.38
2023-03-26T05:31:33.629Z,94.44
2023-03-26T05:32:36.476Z,94.48
2023-03-26T05:33:38.615Z,94.62
2023-03-26T05:34:43.436Z,94.52
2023-03-26T05:35:48.106Z,94.78
2023-03-26T05:36:57.486Z,94.80
2023-03-26T05:38:19.550Z,94.59
2023-03-26T05:39:25.665Z,94.67
2023-03-26T05:40:48.473Z,94.84
2023-03-26T05:41:53.840Z,94.84
2023-03-26T05:42:59.777Z,94.82
2023-03-26T05:44:18.746Z,94.86
2023-03-26T05:45:22.344Z,94.84
2023-03-26T05:46:23.878Z,94.85
2023-03-26T05:47:26.120Z,94.93
2023-03-26T05:48:28.744Z,94.91
2023-03-26T05:49:30.610Z,94.79
2023-03-26T05:50:32.633Z,94.82
2023-03-26T05:51:35.402Z,94.95
2023-03-26T05:53:04.576Z,94.88
2023-03-26T05:54:32.179Z,94.96
2023-03-26T05:55:36.790Z,94.89
2023-03-26T05:56:57.324Z,94.88
2023-03-26T05:58:17.436Z,95.03
2023-03-26T05:59:37.551Z,94.96
2023-03-26T06:00:59.968Z,94.93
2023-03-26T06:02:11.065Z,94.94
2023-03-26T06:03:12.968Z,95.16
2023-03-26T06:04:35.250Z,94.70
2023-03-26T06:05:59.194Z,95.01
2023-03-26T06:07:17.848Z,94.83
2023-03-26T06:08:27.751Z,94.72
2023-03-26T06:09:29.551Z,94.43
2023-03-26T06:10:31.522Z,94.48
2023-03-26T06:11:37.576Z,94.22
2023-03-26T06:12:43.787Z,93.81
2023-03-26T06:13:46.039Z,93.32
2023-03-26T06:14:49.233Z,93.06
2023-03-26T06:16:10.602Z,92.95
2023-03-26T06:17:41.403Z,92.96
2023-03-26T06:19:09.332Z,93.00
2023-03-26T06:20:33.161Z,92.86
2023-03-26T06:21:39.719Z,92.79
2023-03-26T06:22:50.286Z,92.77
2023-03-26T06:24:16.441Z,92.58
2023-03-26T06:25:25.178Z,92.40
2023-03-26T06:26:59.618Z,92.27
2023-03-26T06:28:21.471Z,92.03
2023-03-26T06:29:52.572Z,91.69
2023-03-26T06:31:13.344Z,91.87
2023-03-26T06:32:28.825Z,91.71
2023-03-26T06:33:40.575Z,91.91
2023-03-26T06:34:43.565Z,91.76
2023-03-26T06:35:50.666Z,91.33
2023-03-26T06:36:52.740Z,90.26
2023-03-26T06:37:56.010Z,89.86
2023-03-26T06:38:57.718Z,88.70
2023-03-26T06:39:59.219Z,87.95
2023-03-26T06:41:22.409Z,87.89
2023-03-26T06:43:08.022Z,88.33
2023-03-26T06:44:29.372Z,88.50
2023-03-26T06:45:52.752Z,88.66
2023-03-26T06:47:12.683Z,88.37
2023-03-26T06:48:31.035Z,87.90
2023-03-26T06:49:51.472Z,87.36
2023-03-26T06:51:13.701Z,87.40
2023-03-26T06:52:38.578Z,87.49
2023-03-26T06:54:10.845Z,87.70
2023-03-26T06:55:26.199Z,86.94
2023-03-26T06:56:36.743Z,85.58
2023-03-26T06:58:01.063Z,85.89
2023-03-26T06:59:23.276Z,85.60
2023-03-26T07:00:43.576Z,84.61
2023-03-26T07:02:05.199Z,83.41
2023-03-26T07:03:35.629Z,83.61
2023-03-26T07:04:56.175Z,83.76
2023-03-26T07:06:35.089Z,81.76
2023-03-26T07:07:55.323Z,82.50
2023-03-26T07:09:15.692Z,81.53
2023-03-26T07:10:35.924Z,81.46
2023-03-26T07:11:49.216Z,80.34
2023-03-26T07:13:09.585Z,79.37
2023-03-26T07:14:13.494Z,79.31
2023-03-26T07:15:24.116Z,79.07
2023-03-26T07:16:44.222Z,80.07
2023-03-26T07:18:05.118Z,80.59
2023-03-26T07:19:09.476Z,79.95
2023-03-26T07:20:18.444Z,80.02
2023-03-26T07:21:21.547Z,78.96
2023-03-26T07:22:24.480Z,78.33
2023-03-26T07:23:47.845Z,77.78
2023-03-26T07:25:12.937Z,78.20
2023-03-26T07:26:44.923Z,78.17
2023-03-26T07:28:06.622Z,77.15
2023-03-26T07:29:40.554Z,78.51
2023-03-26T07:31:04.976Z,79.39
2023-03-26T07:32:21.526Z,79.16
2023-03-26T07:33:44.555Z,78.21
2023-03-26T07:35:16.244Z,77.10
2023-03-26T07:36:45.404Z,76.48
2023-03-26T07:38:14.952Z,77.75
2023-03-26T07:39:28.913Z,77.90
2023-03-26T07:41:03.819Z,76.99
2023-03-26T07:42:25.472Z,77.16
2023-03-26T07:44:19.312Z,76.74
2023-03-26T07:45:57.590Z,75.54
2023-03-26T07:47:04.697Z,76.45
2023-03-26T07:48:40.756Z,77.26
2023-03-26T07:49:46.424Z,77.73
2023-03-26T07:51:20.855Z,77.82
2023-03-26T07:52:29.401Z,77.54
2023-03-26T07:53:39.594Z,76.92
2023-03-26T07:55:13.489Z,77.71
2023-03-26T07:56:54.105Z,76.17
2023-03-26T07:58:22.600Z,74.82
2023-03-26T07:59:48.821Z,75.21
2023-03-26T08:00:57.521Z,76.33
2023-03-26T08:02:14.081Z,76.73
2023-03-26T08:03:24.797Z,76.42
2023-03-26T08:04:49.358Z,76.39
2023-03-26T08:06:18.379Z,76.62
2023-03-26T08:07:53.291Z,75.59
2023-03-26T08:09:07.585Z,75.60
2023-03-26T08:10:48.635Z,74.55
2023-03-26T08:11:58.613Z,74.26
2023-03-26T08:13:00.343Z,74.26
2023-03-26T08:14:21.803Z,74.79
2023-03-26T08:15:25.602Z,75.20
2023-03-26T08:16:30.148Z,75.65
2023-03-26T08:17:42.769Z,75.69
2023-03-26T08:18:56.113Z,75.90
2023-03-26T08:20:07.593Z,75.52
2023-03-26T08:21:16.947Z,75.29
2023-03-26T08:22:29.357Z,75.14
2023-03-26T08:23:31.336Z,74.49
2023-03-26T08:24:43.547Z,74.23
2023-03-26T08:26:03.440Z,74.78
2023-03-26T08:27:22.731Z,74.33
2023-03-26T08:28:44.709Z,75.14
2023-03-26T08:30:08.495Z,75.30
2023-03-26T08:31:14.488Z,73.22
2023-03-26T08:32:19.391Z,74.50
2023-03-26T08:33:23.927Z,74.55
2023-03-26T08:34:25.482Z,73.74
2023-03-26T08:35:27.800Z,74.36
2023-03-26T08:36:29.615Z,73.69
2023-03-26T08:37:33.593Z,74.28
2023-03-26T08:38:35.187Z,73.93
2023-03-26T08:39:38.766Z,72.69
2023-03-26T08:40:44.368Z,73.16
2023-03-26T08:41:51.935Z,73.27
2023-03-26T08:43:12.602Z,73.89
2023-03-26T08:44:17.407Z,73.68
2023-03-26T08:45:29.276Z,74.25
2023-03-26T08:46:33.751Z,74.58
2023-03-26T08:47:57.223Z,74.20
2023-03-26T08:49:17.615Z,73.66
2023-03-26T08:50:39.454Z,71.95
2023-03-26T08:52:12.150Z,73.18
2023-03-26T08:53:28.565Z,73.21
2023-03-26T08:54:57.524Z,73.91
2023-03-26T08:56:03.433Z,74.21
2023-03-26T08:57:30.935Z,71.53
2023-03-26T08:58:41.731Z,70.46
2023-03-26T09:00:02.821Z,72.11
2023-03-26T09:01:16.731Z,72.12
2023-03-26T09:02:37.388Z,72.61
2023-03-26T09:03:53.686Z,73.37
2023-03-26T09:04:58.386Z,73.83
2023-03-26T09:06:03.099Z,72.47
2023-03-26T09:07:23.416Z,72.55
2023-03-26T09:08:53.878Z,71.55
2023-03-26T09:10:09.081Z,71.89
2023-03-26T09:11:19.597Z,71.30
2023-03-26T09:12:33.372Z,71.69
2023-03-26T09:13:34.881Z,72.08
2023-03-26T09:15:01.087Z,71.70
2023-03-26T09:16:18.425Z,72.42
2023-03-26T09:17:53.214Z,71.74
2023-03-26T09:18:59.094Z,70.51
2023-03-26T09:20:00.573Z,70.59
2023-03-26T09:21:01.937Z,70.52
2023-03-26T09:22:15.317Z,70.57
2023-03-26T09:23:35.843Z,70.85
2023-03-26T09:24:37.292Z,69.96
2023-03-26T09:25:57.615Z,69.85
2023-03-26T09:27:14.102Z,70.71
2023-03-26T09:28:29.179Z,70.87
2023-03-26T09:29:34.449Z,70.84
2023-03-26T09:30:38.557Z,70.30
2023-03-26T09:32:00.420Z,70.43
2023-03-26T09:33:06.457Z,70.76
2023-03-26T09:34:26.943Z,71.05
2023-03-26T09:35:31.446Z,70.98
2023-03-26T09:36:45.281Z,70.20
2023-03-26T09:37:56.740Z,70.40
2023-03-26T09:39:09.687Z,69.05
2023-03-26T09:40:14.174Z,69.95
2023-03-26T09:41:17.707Z,70.18
2023-03-26T09:42:34.467Z,69.83
2023-03-26T09:43:58.758Z,69.26
2023-03-26T09:45:18.972Z,68.46
2023-03-26T09:46:32.675Z,68.80
2023-03-26T09:47:37.537Z,67.69
2023-03-26T09:48:50.519Z,68.09
2023-03-26T09:50:03.598Z,68.25
2023-03-26T09:51:20.384Z,69.90
2023-03-26T09:52:21.800Z,70.31
2023-03-26T09:53:41.623Z,70.45
2023-03-26T09:55:08.044Z,70.48
2023-03-26T09:56:09.632Z,69.77
2023-03-26T09:57:11.068Z,69.19
2023-03-26T09:58:18.082Z,69.82
2023-03-26T09:59:37.940Z,68.60
2023-03-26T10:00:48.027Z,67.65
2023-03-26T10:01:57.955Z,67.06
2023-03-26T10:03:20.850Z,66.50
2023-03-26T10:04:41.272Z,66.57
2023-03-26T10:05:54.897Z,66.57
2023-03-26T10:07:05.389Z,67.10
2023-03-26T10:08:28.830Z,67.05
2023-03-26T10:09:37.771Z,68.22
2023-03-26T10:10:39.179Z,68.56
2023-03-26T10:11:56.016Z,68.64
2023-03-26T10:13:14.898Z,67.83
2023-03-26T10:14:25.785Z,67.51
2023-03-26T10:15:32.464Z,66.88
2023-03-26T10:16:52.509Z,67.71
2023-03-26T10:18:27.697Z,67.47
2023-03-26T10:19:54.354Z,67.78
2023-03-26T10:21:01.681Z,67.26
2023-03-26T10:22:22.047Z,65.50
2023-03-26T10:23:39.872Z,65.16
2023-03-26T10:24:47.673Z,66.27
2023-03-26T10:26:01.442Z,66.28
2023-03-26T10:27:18.913Z,66.48
2023-03-26T10:28:37.392Z,66.62
2023-03-26T10:29:58.680Z,65.35
2023-03-26T10:31:09.080Z,65.71
2023-03-26T10:32:27.434Z,66.52
2023-03-26T10:33:47.976Z,66.84
2023-03-26T10:35:11.696Z,66.87
2023-03-26T10:36:29.653Z,66.46
2023-03-26T10:37:43.378Z,66.82
2023-03-26T10:39:03.338Z,65.04
2023-03-26T10:40:20.899Z,65.34
2023-03-26T10:41:29.549Z,65.72
2023-03-26T10:42:34.957Z,66.45
2023-03-26T10:44:07.330Z,66.09
2023-03-26T10:45:10.833Z,66.19
2023-03-26T10:46:31.696Z,66.47
2023-03-26T10:47:50.785Z,67.16
2023-03-26T10:49:03.519Z,67.05
2023-03-26T10:50:29.176Z,65.81
2023-03-26T10:51:51.463Z,66.19
2023-03-26T10:53:00.102Z,63.19
2023-03-26T10:54:07.483Z,61.83
2023-03-26T10:55:35.271Z,63.37
2023-03-26T10:56:39.990Z,65.09
2023-03-26T10:57:45.811Z,65.91
2023-03-26T10:58:50.614Z,66.04
2023-03-26T10:59:56.500Z,66.99
2023-03-26T11:01:06.100Z,64.84
2023-03-26T11:02:36.970Z,64.88
2023-03-26T11:03:45.670Z,63.77
2023-03-26T11:04:59.343Z,63.94
2023-03-26T11:06:00.954Z,65.17
2023-03-26T11:07:21.073Z,65.50
2023-03-26T11:08:49.728Z,65.45
2023-03-26T11:10:06.367Z,64.74
2023-03-26T11:11:26.628Z,64.38
2023-03-26T11:12:46.696Z,65.15
2023-03-26T11:14:11.460Z,64.51
2023-03-26T11:15:22.713Z,64.58
2023-03-26T11:16:33.471Z,64.86
2023-03-26T11:17:53.615Z,64.56
2023-03-26T11:19:06.229Z,64.17
2023-03-26T11:20:08.410Z,63.69
2023-03-26T11:21:26.532Z,63.92
2023-03-26T11:22:37.286Z,64.42
2023-03-26T11:23:49.823Z,64.86
2023-03-26T11:25:06.925Z,64.49
2023-03-26T11:26:23.430Z,65.10
2023-03-26T11:27:36.277Z,63.90
2023-03-26T11:29:03.309Z,63.51
2023-03-26T11:30:06.347Z,64.08
2023-03-26T11:31:22.341Z,63.55
2023-03-26T11:32:27.308Z,63.28
2023-03-26T11:33:34.889Z,63.57
2023-03-26T11:34:38.934Z,62.82
2023-03-26T11:35:42.941Z,62.81
2023-03-26T11:36:50.468Z,63.46
2023-03-26T11:37:53.682Z,63.01
2023-03-26T11:38:58.792Z,63.23
2023-03-26T11:40:11.537Z,63.93
2023-03-26T11:41:22.889Z,63.87
2023-03-26T11:42:34.553Z,64.06
2023-03-26T11:43:36.743Z,62.54
2023-03-26T11:44:42.098Z,63.24
2023-03-26T11:45:51.877Z,62.68
2023-03-26T11:46:58.797Z,63.53
2023-03-26T11:48:18.304Z,62.04
2023-03-26T11:49:22.156Z,61.94
2023-03-26T11:50:27.688Z,60.61
2023-03-26T11:51:36.744Z,60.73
2023-03-26T11:52:38.454Z,61.01
2023-03-26T11:53:39.991Z,61.12
2023-03-26T11:54:43.479Z,61.42
2023-03-26T11:55:49.049Z,62.55
2023-03-26T11:57:04.458Z,63.01
2023-03-26T11:58:17.493Z,63.00
2023-03-26T11:59:21.256Z,63.06
2023-03-26T12:00:27.690Z,61.16
2023-03-26T12:01:44.330Z,61.74
2023-03-26T12:02:49.604Z,62.65
2023-03-26T12:04:05.671Z,62.70
2023-03-26T12:05:16.382Z,63.60
2023-03-26T12:06:25.653Z,63.80
2023-03-26T12:07:33.487Z,62.26
2023-03-26T12:08:38.573Z,62.68
2023-03-26T12:09:52.018Z,61.06
2023-03-26T12:11:10.991Z,62.14
2023-03-26T12:12:12.470Z,60.19
2023-03-26T12:13:26.483Z,60.95
2023-03-26T12:14:29.482Z,61.27
2023-03-26T12:15:32.130Z,61.12
2023-03-26T12:16:34.424Z,61.97
2023-03-26T12:17:37.330Z,63.00
2023-03-26T12:18:41.027Z,62.93
2023-03-26T12:19:45.568Z,62.12
2023-03-26T12:20:48.490Z,62.78
2023-03-26T12:21:51.425Z,62.61
2023-03-26T12:22:53.797Z,61.46
2023-03-26T12:23:56.295Z,61.77
2023-03-26T12:25:01.387Z,61.07
2023-03-26T12:26:17.327Z,62.06
2023-03-26T12:27:21.768Z,62.23
2023-03-26T12:28:25.407Z,62.53
2023-03-26T12:29:34.397Z,61.68
2023-03-26T12:30:39.676Z,61.73
2023-03-26T12:32:04.575Z,60.57
2023-03-26T12:33:08.270Z,60.62
2023-03-26T12:34:15.330Z,60.67
2023-03-26T12:35:18.739Z,62.49
2023-03-26T12:36:27.716Z,62.73
2023-03-26T12:37:42.964Z,59.54
2023-03-26T12:39:15.868Z,59.72
2023-03-26T12:40:27.632Z,59.46
2023-03-26T12:43:40.602Z,60.71
2023-03-26T12:44:54.772Z,60.50
2023-03-26T12:44:55.788Z,60.64
2023-03-26T12:47:56.432Z,60.07
2023-03-26T12:47:58.042Z,61.50
2023-03-26T12:48:37.695Z,61.70
2023-03-26T12:49:39.156Z,61.78
2023-03-26T12:50:58.019Z,61.53
2023-03-26T12:52:13.608Z,59.58
2023-03-26T12:53:31.961Z,60.49
2023-03-26T12:54:55.501Z,58.41
2023-03-26T12:56:19.996Z,60.41
2023-03-26T12:57:21.665Z,60.32
2023-03-26T12:58:33.775Z,60.28
2023-03-26T12:59:47.575Z,60.41
2023-03-26T13:00:56.693Z,60.93
2023-03-26T13:01:58.369Z,60.89
2023-03-26T13:03:24.824Z,61.83
2023-03-26T13:04:43.637Z,61.96
2023-03-26T13:05:50.717Z,58.95
2023-03-26T13:07:00.567Z,59.90
2023-03-26T13:08:15.822Z,59.76
2023-03-26T13:09:25.351Z,60.77
2023-03-26T13:10:33.623Z,61.62
2023-03-26T13:11:48.386Z,60.86
2023-03-26T13:12:59.756Z,59.73
2023-03-26T13:14:10.000Z,59.47
2023-03-26T13:15:22.641Z,59.08
2023-03-26T13:16:44.660Z,60.35
2023-03-26T13:17:46.431Z,60.81
2023-03-26T13:19:01.620Z,60.78
2023-03-26T13:20:12.369Z,60.86
2023-03-26T13:21:21.609Z,60.41
2023-03-26T13:22:32.676Z,60.37
2023-03-26T13:23:37.228Z,60.19
2023-03-26T13:25:02.915Z,59.35
2023-03-26T13:26:16.828Z,60.93
2023-03-26T13:27:18.322Z,60.79
2023-03-26T13:28:25.688Z,61.30
2023-03-26T13:29:32.230Z,61.08
2023-03-26T13:30:39.143Z,60.62
2023-03-26T13:31:43.392Z,59.44
2023-03-26T13:32:58.592Z,60.24
2023-03-26T13:34:23.460Z,59.90
2023-03-26T13:35:44.041Z,59.94
2023-03-26T13:37:04.583Z,60.18
2023-03-26T13:38:11.531Z,60.56
2023-03-26T13:39:31.619Z,60.54
2023-03-26T13:40:42.500Z,60.03
2023-03-26T13:41:59.158Z,59.92
2023-03-26T13:43:03.552Z,60.49
2023-03-26T13:44:15.826Z,60.62
2023-03-26T13:45:25.340Z,60.22
2023-03-26T13:46:31.288Z,61.04
2023-03-26T13:47:35.737Z,60.32
2023-03-26T13:48:47.540Z,59.72
2023-03-26T13:49:56.344Z,58.39
2023-03-26T13:51:01.800Z,59.72
2023-03-26T13:52:07.241Z,58.97
2023-03-26T13:53:20.782Z,57.66
2023-03-26T13:54:40.141Z,58.92
2023-03-26T13:55:47.743Z,59.82
2023-03-26T13:57:00.345Z,59.98
2023-03-26T13:58:13.777Z,59.71
2023-03-26T13:59:30.226Z,59.78
2023-03-26T14:00:43.714Z,60.34
2023-03-26T14:01:52.458Z,59.53
2023-03-26T14:02:57.981Z,59.06
2023-03-26T14:04:05.731Z,59.49
2023-03-26T14:05:12.999Z,59.72
2023-03-26T14:06:33.980Z,59.87
2023-03-26T14:07:43.332Z,59.77
2023-03-26T14:08:47.785Z,59.73
2023-03-26T14:10:08.283Z,59.84
2023-03-26T14:11:28.842Z,60.44
2023-03-26T14:12:49.059Z,60.60
2023-03-26T14:13:57.129Z,60.28
2023-03-26T14:15:13.818Z,60.03
2023-03-26T14:16:20.579Z,60.50
2023-03-26T14:17:28.833Z,60.57
2023-03-26T14:18:44.950Z,60.51
2023-03-26T14:20:05.302Z,59.68
2023-03-26T14:21:09.829Z,59.38
2023-03-26T14:22:11.207Z,59.59
2023-03-26T14:23:21.530Z,59.53
2023-03-26T14:24:26.039Z,59.05
2023-03-26T14:25:27.548Z,58.08
2023-03-26T14:26:47.715Z,56.05
2023-03-26T14:28:13.387Z,56.86
2023-03-26T14:29:15.142Z,58.65
2023-03-26T14:30:40.905Z,58.37
2023-03-26T14:32:02.478Z,59.30
2023-03-26T14:33:28.685Z,59.06
2023-03-26T14:34:36.066Z,59.49
2023-03-26T14:36:07.138Z,59.50
2023-03-26T14:37:28.759Z,59.83
2023-03-26T14:38:36.104Z,60.37
2023-03-26T14:39:44.866Z,59.96
2023-03-26T14:40:46.453Z,59.50
2023-03-26T14:41:50.373Z,59.95
2023-03-26T14:43:10.758Z,59.55
2023-03-26T14:44:24.444Z,58.86
2023-03-26T14:45:37.332Z,59.32
2023-03-26T14:46:57.787Z,59.71
2023-03-26T14:48:14.080Z,60.79
2023-03-26T14:49:33.994Z,60.23
2023-03-26T14:50:57.061Z,60.45
2023-03-26T14:52:04.865Z,59.26
2023-03-26T14:53:13.450Z,60.35
2023-03-26T14:54:18.727Z,60.36
2023-03-26T14:55:21.545Z,60.52
2023-03-26T14:56:23.001Z,60.45
2023-03-26T14:57:39.745Z,60.67
2023-03-26T14:58:53.313Z,60.90
2023-03-26T15:00:16.190Z,61.20
2023-03-26T15:01:23.121Z,61.20
2023-03-26T15:02:43.469Z,60.69
2023-03-26T15:03:49.183Z,60.12
2023-03-26T15:04:53.221Z,60.90
2023-03-26T15:06:07.728Z,60.59
2023-03-26T15:07:21.497Z,60.36
2023-03-26T15:08:41.705Z,60.96
2023-03-26T15:09:52.234Z,60.53
2023-03-26T15:10:56.380Z,60.69
2023-03-26T15:12:14.378Z,61.35
2023-03-26T15:13:15.964Z,60.86
2023-03-26T15:14:36.249Z,60.56